Heat Index SAI AWOS Graphical Display Untitled Document
Bertrand Chaffee Hospital Heliport (2NK6) Springville, New York, USA
220
11:14
31/07/2015
00
N/A
N/A
29.94
N/A
1420
63(F), 17(C)
61(F), 16(C)
63 F
93%
CLR
10
N/A
0"
N/A
11:14 zulu Wind Calm, Altimeter 29.94
METAR K2NK6 311114Z AUTO 00000KT 10SM CLR 17/16 A2994 A02 P0000
METAR:
FAA Disclaimer--Advisory Use ONLY, not for flight info--
INFO:
Wind Direction:
Wind Speed:
Wind Gust:
Wind Variable:
Altimeter:
Dens Alt:
Elev:
Temp:
Dwpt:
Wind Chill
Rel Humidity:
Ceiling:
Visibility:
Prsnt Wea:
PCPN:
Remarks:
How to read the WebPage